sensor_id;sensor_type;location;lat;lon;timestamp;P1;durP1;ratioP1;P2;durP2;ratioP2
64795;SDS011;51229;51.980;6.722;2023-04-15T00:00:28;6.43;;;4.13;;
64795;SDS011;51229;51.980;6.722;2023-04-15T00:02:54;6.93;;;4.25;;
64795;SDS011;51229;51.980;6.722;2023-04-15T00:05:20;7.22;;;4.22;;
64795;SDS011;51229;51.980;6.722;2023-04-15T00:07:46;6.53;;;4.20;;
64795;SDS011;51229;51.980;6.722;2023-04-15T00:10:12;8.18;;;4.43;;
64795;SDS011;51229;51.980;6.722;2023-04-15T00:12:40;7.07;;;4.50;;
64795;SDS011;51229;51.980;6.722;2023-04-15T00:15:07;6.28;;;4.38;;
64795;SDS011;51229;51.980;6.722;2023-04-15T00:17:33;7.93;;;4.55;;
64795;SDS011;51229;51.980;6.722;2023-04-15T00:20:00;8.40;;;4.65;;
64795;SDS011;51229;51.980;6.722;2023-04-15T00:22:26;6.82;;;4.15;;
64795;SDS011;51229;51.980;6.722;2023-04-15T00:24:52;7.35;;;4.57;;
64795;SDS011;51229;51.980;6.722;2023-04-15T00:27:18;8.13;;;4.88;;
64795;SDS011;51229;51.980;6.722;2023-04-15T00:29:44;7.10;;;4.55;;
64795;SDS011;51229;51.980;6.722;2023-04-15T00:32:10;6.93;;;4.63;;
64795;SDS011;51229;51.980;6.722;2023-04-15T00:34:35;7.35;;;4.47;;
64795;SDS011;51229;51.980;6.722;2023-04-15T00:37:01;7.07;;;4.63;;
64795;SDS011;51229;51.980;6.722;2023-04-15T00:39:27;8.02;;;4.60;;
64795;SDS011;51229;51.980;6.722;2023-04-15T00:41:53;7.65;;;4.43;;
64795;SDS011;51229;51.980;6.722;2023-04-15T00:44:19;6.53;;;4.60;;
64795;SDS011;51229;51.980;6.722;2023-04-15T00:46:45;8.00;;;5.07;;
64795;SDS011;51229;51.980;6.722;2023-04-15T00:49:12;6.90;;;4.57;;
64795;SDS011;51229;51.980;6.722;2023-04-15T00:51:38;8.02;;;4.80;;
64795;SDS011;51229;51.980;6.722;2023-04-15T00:54:05;7.70;;;4.78;;
64795;SDS011;51229;51.980;6.722;2023-04-15T00:56:35;8.35;;;4.80;;
64795;SDS011;51229;51.980;6.722;2023-04-15T00:59:04;8.10;;;5.32;;
64795;SDS011;51229;51.980;6.722;2023-04-15T01:01:34;9.10;;;5.43;;
64795;SDS011;51229;51.980;6.722;2023-04-15T01:04:00;7.78;;;4.57;;
64795;SDS011;51229;51.980;6.722;2023-04-15T01:06:28;8.18;;;5.15;;
64795;SDS011;51229;51.980;6.722;2023-04-15T01:08:54;8.60;;;4.90;;
64795;SDS011;51229;51.980;6.722;2023-04-15T01:11:22;7.28;;;4.68;;
64795;SDS011;51229;51.980;6.722;2023-04-15T01:13:49;7.88;;;4.60;;
64795;SDS011;51229;51.980;6.722;2023-04-15T01:16:16;7.93;;;4.88;;
64795;SDS011;51229;51.980;6.722;2023-04-15T01:18:43;7.35;;;5.32;;
64795;SDS011;51229;51.980;6.722;2023-04-15T01:21:09;9.93;;;4.75;;
64795;SDS011;51229;51.980;6.722;2023-04-15T01:23:35;6.97;;;5.18;;
64795;SDS011;51229;51.980;6.722;2023-04-15T01:26:02;7.82;;;4.70;;
64795;SDS011;51229;51.980;6.722;2023-04-15T01:28:29;7.55;;;5.00;;
64795;SDS011;51229;51.980;6.722;2023-04-15T01:31:09;9.07;;;5.05;;
64795;SDS011;51229;51.980;6.722;2023-04-15T01:33:37;9.00;;;5.78;;
64795;SDS011;51229;51.980;6.722;2023-04-15T01:36:05;7.35;;;5.03;;
64795;SDS011;51229;51.980;6.722;2023-04-15T01:38:32;9.10;;;5.80;;
64795;SDS011;51229;51.980;6.722;2023-04-15T01:40:58;8.85;;;5.38;;
64795;SDS011;51229;51.980;6.722;2023-04-15T01:43:25;9.02;;;5.65;;
64795;SDS011;51229;51.980;6.722;2023-04-15T01:45:51;6.13;;;4.47;;
64795;SDS011;51229;51.980;6.722;2023-04-15T01:48:16;7.40;;;5.45;;
64795;SDS011;51229;51.980;6.722;2023-04-15T01:50:43;10.00;;;5.38;;
64795;SDS011;51229;51.980;6.722;2023-04-15T01:53:09;7.82;;;5.10;;
64795;SDS011;51229;51.980;6.722;2023-04-15T01:55:35;8.10;;;5.53;;
64795;SDS011;51229;51.980;6.722;2023-04-15T01:58:01;9.45;;;5.40;;
64795;SDS011;51229;51.980;6.722;2023-04-15T02:00:27;8.38;;;5.28;;
64795;SDS011;51229;51.980;6.722;2023-04-15T02:02:54;9.00;;;5.60;;
64795;SDS011;51229;51.980;6.722;2023-04-15T02:05:19;9.52;;;5.50;;
64795;SDS011;51229;51.980;6.722;2023-04-15T02:07:48;8.50;;;5.72;;
64795;SDS011;51229;51.980;6.722;2023-04-15T02:10:14;8.73;;;5.78;;
64795;SDS011;51229;51.980;6.722;2023-04-15T02:12:40;10.73;;;6.00;;
64795;SDS011;51229;51.980;6.722;2023-04-15T02:15:06;11.27;;;6.55;;
64795;SDS011;51229;51.980;6.722;2023-04-15T02:17:33;12.05;;;6.15;;
64795;SDS011;51229;51.980;6.722;2023-04-15T02:19:59;9.45;;;5.85;;
64795;SDS011;51229;51.980;6.722;2023-04-15T02:22:25;9.95;;;6.30;;
64795;SDS011;51229;51.980;6.722;2023-04-15T02:24:51;9.05;;;6.40;;
64795;SDS011;51229;51.980;6.722;2023-04-15T02:27:17;9.65;;;6.40;;
64795;SDS011;51229;51.980;6.722;2023-04-15T02:29:43;11.00;;;6.35;;
64795;SDS011;51229;51.980;6.722;2023-04-15T02:32:10;10.77;;;6.55;;
64795;SDS011;51229;51.980;6.722;2023-04-15T02:34:37;11.65;;;6.35;;
64795;SDS011;51229;51.980;6.722;2023-04-15T02:37:10;9.15;;;5.85;;
64795;SDS011;51229;51.980;6.722;2023-04-15T02:39:36;11.60;;;6.32;;
64795;SDS011;51229;51.980;6.722;2023-04-15T02:42:02;9.60;;;6.47;;
64795;SDS011;51229;51.980;6.722;2023-04-15T02:44:30;10.60;;;6.50;;
64795;SDS011;51229;51.980;6.722;2023-04-15T02:46:59;10.90;;;6.45;;
64795;SDS011;51229;51.980;6.722;2023-04-15T02:49:25;10.73;;;6.90;;
64795;SDS011;51229;51.980;6.722;2023-04-15T02:51:53;9.90;;;6.60;;
64795;SDS011;51229;51.980;6.722;2023-04-15T02:54:19;9.85;;;6.55;;
64795;SDS011;51229;51.980;6.722;2023-04-15T02:56:47;10.77;;;6.68;;
64795;SDS011;51229;51.980;6.722;2023-04-15T02:59:14;8.63;;;6.03;;
64795;SDS011;51229;51.980;6.722;2023-04-15T03:01:40;9.73;;;6.53;;
64795;SDS011;51229;51.980;6.722;2023-04-15T03:04:05;10.85;;;6.28;;
64795;SDS011;51229;51.980;6.722;2023-04-15T03:06:34;10.95;;;6.55;;
64795;SDS011;51229;51.980;6.722;2023-04-15T03:09:00;9.75;;;6.90;;
64795;SDS011;51229;51.980;6.722;2023-04-15T03:11:31;9.07;;;6.65;;
64795;SDS011;51229;51.980;6.722;2023-04-15T03:13:57;10.23;;;6.60;;
64795;SDS011;51229;51.980;6.722;2023-04-15T03:16:28;9.88;;;7.15;;
64795;SDS011;51229;51.980;6.722;2023-04-15T03:18:56;9.82;;;7.07;;
64795;SDS011;51229;51.980;6.722;2023-04-15T03:21:22;12.25;;;7.15;;
64795;SDS011;51229;51.980;6.722;2023-04-15T03:23:48;10.95;;;6.82;;
64795;SDS011;51229;51.980;6.722;2023-04-15T03:26:27;11.10;;;7.40;;
64795;SDS011;51229;51.980;6.722;2023-04-15T03:28:57;11.15;;;7.70;;
64795;SDS011;51229;51.980;6.722;2023-04-15T03:31:23;10.55;;;7.57;;
64795;SDS011;51229;51.980;6.722;2023-04-15T03:33:48;12.50;;;8.25;;
64795;SDS011;51229;51.980;6.722;2023-04-15T03:36:14;11.50;;;7.20;;
64795;SDS011;51229;51.980;6.722;2023-04-15T03:38:41;12.20;;;8.05;;
64795;SDS011;51229;51.980;6.722;2023-04-15T03:41:07;12.95;;;7.53;;
64795;SDS011;51229;51.980;6.722;2023-04-15T03:43:33;13.13;;;7.97;;
64795;SDS011;51229;51.980;6.722;2023-04-15T03:45:59;10.98;;;7.72;;
64795;SDS011;51229;51.980;6.722;2023-04-15T03:48:25;12.60;;;7.68;;
64795;SDS011;51229;51.980;6.722;2023-04-15T03:50:51;11.48;;;7.53;;
64795;SDS011;51229;51.980;6.722;2023-04-15T03:53:17;11.82;;;8.13;;
64795;SDS011;51229;51.980;6.722;2023-04-15T03:55:44;10.77;;;6.82;;
64795;SDS011;51229;51.980;6.722;2023-04-15T03:58:10;11.63;;;6.85;;
64795;SDS011;51229;51.980;6.722;2023-04-15T04:00:37;11.50;;;7.72;;
64795;SDS011;51229;51.980;6.722;2023-04-15T04:03:06;12.90;;;8.48;;
64795;SDS011;51229;51.980;6.722;2023-04-15T04:05:32;12.80;;;7.60;;
64795;SDS011;51229;51.980;6.722;2023-04-15T04:07:58;13.50;;;7.88;;
64795;SDS011;51229;51.980;6.722;2023-04-15T04:10:23;12.55;;;8.48;;
64795;SDS011;51229;51.980;6.722;2023-04-15T04:12:51;11.95;;;7.10;;
64795;SDS011;51229;51.980;6.722;2023-04-15T04:15:16;12.32;;;7.63;;
64795;SDS011;51229;51.980;6.722;2023-04-15T04:17:42;12.07;;;7.53;;
64795;SDS011;51229;51.980;6.722;2023-04-15T04:20:08;12.35;;;8.13;;
64795;SDS011;51229;51.980;6.722;2023-04-15T04:22:37;11.07;;;7.88;;
64795;SDS011;51229;51.980;6.722;2023-04-15T04:25:04;11.18;;;7.47;;
64795;SDS011;51229;51.980;6.722;2023-04-15T04:27:30;13.85;;;8.43;;
64795;SDS011;51229;51.980;6.722;2023-04-15T04:29:55;11.27;;;7.00;;
64795;SDS011;51229;51.980;6.722;2023-04-15T04:32:21;14.00;;;8.77;;
64795;SDS011;51229;51.980;6.722;2023-04-15T04:34:47;12.30;;;7.80;;
64795;SDS011;51229;51.980;6.722;2023-04-15T04:37:12;11.90;;;8.27;;
64795;SDS011;51229;51.980;6.722;2023-04-15T04:39:39;11.52;;;7.60;;
64795;SDS011;51229;51.980;6.722;2023-04-15T04:42:05;13.32;;;8.85;;
64795;SDS011;51229;51.980;6.722;2023-04-15T04:44:31;13.23;;;8.10;;
64795;SDS011;51229;51.980;6.722;2023-04-15T04:46:57;12.30;;;8.10;;
64795;SDS011;51229;51.980;6.722;2023-04-15T04:49:22;13.30;;;8.23;;
64795;SDS011;51229;51.980;6.722;2023-04-15T04:51:48;15.30;;;8.77;;
64795;SDS011;51229;51.980;6.722;2023-04-15T04:54:14;14.00;;;8.80;;
64795;SDS011;51229;51.980;6.722;2023-04-15T04:56:40;13.18;;;8.63;;
64795;SDS011;51229;51.980;6.722;2023-04-15T04:59:05;14.27;;;8.82;;
64795;SDS011;51229;51.980;6.722;2023-04-15T05:01:31;15.23;;;8.93;;
64795;SDS011;51229;51.980;6.722;2023-04-15T05:03:58;14.70;;;8.60;;
64795;SDS011;51229;51.980;6.722;2023-04-15T05:06:24;14.18;;;8.55;;
64795;SDS011;51229;51.980;6.722;2023-04-15T05:08:50;13.82;;;8.68;;
64795;SDS011;51229;51.980;6.722;2023-04-15T05:11:15;15.02;;;8.50;;
64795;SDS011;51229;51.980;6.722;2023-04-15T05:13:41;11.77;;;8.20;;
64795;SDS011;51229;51.980;6.722;2023-04-15T05:16:07;15.23;;;8.32;;
64795;SDS011;51229;51.980;6.722;2023-04-15T05:18:33;25.10;;;13.10;;
64795;SDS011;51229;51.980;6.722;2023-04-15T05:20:59;18.23;;;11.23;;
64795;SDS011;51229;51.980;6.722;2023-04-15T05:23:26;14.25;;;8.90;;
64795;SDS011;51229;51.980;6.722;2023-04-15T05:25:52;13.00;;;8.52;;
64795;SDS011;51229;51.980;6.722;2023-04-15T05:28:17;11.98;;;7.80;;
64795;SDS011;51229;51.980;6.722;2023-04-15T05:30:43;14.07;;;8.30;;
64795;SDS011;51229;51.980;6.722;2023-04-15T05:33:09;10.88;;;7.00;;
64795;SDS011;51229;51.980;6.722;2023-04-15T05:35:35;14.13;;;7.65;;
64795;SDS011;51229;51.980;6.722;2023-04-15T05:38:00;12.75;;;8.80;;
64795;SDS011;51229;51.980;6.722;2023-04-15T05:40:26;12.63;;;8.48;;
64795;SDS011;51229;51.980;6.722;2023-04-15T05:42:52;13.95;;;8.75;;
64795;SDS011;51229;51.980;6.722;2023-04-15T05:45:17;12.10;;;8.27;;
64795;SDS011;51229;51.980;6.722;2023-04-15T05:47:43;13.73;;;8.57;;
64795;SDS011;51229;51.980;6.722;2023-04-15T05:50:09;15.80;;;8.70;;
64795;SDS011;51229;51.980;6.722;2023-04-15T05:52:35;12.52;;;8.32;;
64795;SDS011;51229;51.980;6.722;2023-04-15T05:55:01;13.50;;;9.05;;
64795;SDS011;51229;51.980;6.722;2023-04-15T05:57:26;14.18;;;9.00;;
64795;SDS011;51229;51.980;6.722;2023-04-15T05:59:52;14.95;;;9.48;;
64795;SDS011;51229;51.980;6.722;2023-04-15T06:02:18;15.00;;;9.20;;
64795;SDS011;51229;51.980;6.722;2023-04-15T06:04:43;13.52;;;8.55;;
64795;SDS011;51229;51.980;6.722;2023-04-15T06:07:09;15.27;;;9.05;;
64795;SDS011;51229;51.980;6.722;2023-04-15T06:09:35;15.18;;;9.38;;
64795;SDS011;51229;51.980;6.722;2023-04-15T06:12:00;14.60;;;9.30;;
64795;SDS011;51229;51.980;6.722;2023-04-15T06:14:27;14.30;;;8.75;;
64795;SDS011;51229;51.980;6.722;2023-04-15T06:16:52;15.32;;;8.75;;
64795;SDS011;51229;51.980;6.722;2023-04-15T06:19:18;12.68;;;9.07;;
64795;SDS011;51229;51.980;6.722;2023-04-15T06:21:44;14.07;;;8.85;;
64795;SDS011;51229;51.980;6.722;2023-04-15T06:24:10;13.30;;;8.05;;
64795;SDS011;51229;51.980;6.722;2023-04-15T06:26:36;15.88;;;9.05;;
64795;SDS011;51229;51.980;6.722;2023-04-15T06:29:02;14.10;;;8.73;;
64795;SDS011;51229;51.980;6.722;2023-04-15T06:31:28;15.27;;;9.13;;
64795;SDS011;51229;51.980;6.722;2023-04-15T06:33:54;15.70;;;8.93;;
64795;SDS011;51229;51.980;6.722;2023-04-15T06:36:20;16.40;;;9.30;;
64795;SDS011;51229;51.980;6.722;2023-04-15T06:38:46;13.48;;;8.13;;
64795;SDS011;51229;51.980;6.722;2023-04-15T06:41:11;14.25;;;8.40;;
64795;SDS011;51229;51.980;6.722;2023-04-15T06:43:38;14.82;;;8.60;;
64795;SDS011;51229;51.980;6.722;2023-04-15T06:46:04;14.20;;;8.85;;
64795;SDS011;51229;51.980;6.722;2023-04-15T06:48:29;16.63;;;10.00;;
64795;SDS011;51229;51.980;6.722;2023-04-15T06:50:55;15.88;;;8.98;;
64795;SDS011;51229;51.980;6.722;2023-04-15T06:53:23;14.85;;;9.15;;
64795;SDS011;51229;51.980;6.722;2023-04-15T06:55:54;14.13;;;8.63;;
64795;SDS011;51229;51.980;6.722;2023-04-15T06:58:20;15.63;;;10.10;;
64795;SDS011;51229;51.980;6.722;2023-04-15T07:00:46;15.98;;;9.38;;
64795;SDS011;51229;51.980;6.722;2023-04-15T07:03:12;17.77;;;9.75;;
64795;SDS011;51229;51.980;6.722;2023-04-15T07:05:39;16.30;;;9.10;;
64795;SDS011;51229;51.980;6.722;2023-04-15T07:08:05;17.40;;;9.98;;
64795;SDS011;51229;51.980;6.722;2023-04-15T07:10:32;15.80;;;9.38;;
64795;SDS011;51229;51.980;6.722;2023-04-15T07:12:58;15.15;;;9.35;;
64795;SDS011;51229;51.980;6.722;2023-04-15T07:15:24;14.77;;;9.15;;
64795;SDS011;51229;51.980;6.722;2023-04-15T07:17:49;14.63;;;9.00;;
64795;SDS011;51229;51.980;6.722;2023-04-15T07:20:15;15.40;;;9.38;;
64795;SDS011;51229;51.980;6.722;2023-04-15T07:22:41;16.33;;;9.15;;
64795;SDS011;51229;51.980;6.722;2023-04-15T07:25:06;14.40;;;8.73;;
64795;SDS011;51229;51.980;6.722;2023-04-15T07:27:33;12.73;;;8.05;;
64795;SDS011;51229;51.980;6.722;2023-04-15T07:29:58;12.85;;;7.60;;
64795;SDS011;51229;51.980;6.722;2023-04-15T07:32:24;13.90;;;8.05;;
64795;SDS011;51229;51.980;6.722;2023-04-15T07:34:50;13.85;;;7.30;;
64795;SDS011;51229;51.980;6.722;2023-04-15T07:37:15;13.57;;;7.63;;
64795;SDS011;51229;51.980;6.722;2023-04-15T07:39:41;13.57;;;7.88;;
64795;SDS011;51229;51.980;6.722;2023-04-15T07:42:08;12.90;;;8.18;;
64795;SDS011;51229;51.980;6.722;2023-04-15T07:44:34;12.55;;;7.57;;
64795;SDS011;51229;51.980;6.722;2023-04-15T07:47:01;11.70;;;7.50;;
64795;SDS011;51229;51.980;6.722;2023-04-15T07:49:27;13.27;;;7.68;;
64795;SDS011;51229;51.980;6.722;2023-04-15T07:51:56;13.35;;;7.60;;
64795;SDS011;51229;51.980;6.722;2023-04-15T07:54:24;12.75;;;7.65;;
64795;SDS011;51229;51.980;6.722;2023-04-15T07:56:50;12.60;;;7.63;;
64795;SDS011;51229;51.980;6.722;2023-04-15T07:59:16;12.55;;;7.15;;
64795;SDS011;51229;51.980;6.722;2023-04-15T08:01:42;14.27;;;8.15;;
64795;SDS011;51229;51.980;6.722;2023-04-15T08:04:08;12.95;;;7.35;;
64795;SDS011;51229;51.980;6.722;2023-04-15T08:06:34;12.90;;;7.68;;
64795;SDS011;51229;51.980;6.722;2023-04-15T08:09:00;12.32;;;6.60;;
64795;SDS011;51229;51.980;6.722;2023-04-15T08:11:26;14.38;;;8.32;;
64795;SDS011;51229;51.980;6.722;2023-04-15T08:13:52;13.15;;;6.78;;
64795;SDS011;51229;51.980;6.722;2023-04-15T08:16:18;14.05;;;7.47;;
64795;SDS011;51229;51.980;6.722;2023-04-15T08:18:46;12.20;;;7.00;;
64795;SDS011;51229;51.980;6.722;2023-04-15T08:21:13;11.73;;;6.68;;
64795;SDS011;51229;51.980;6.722;2023-04-15T08:23:39;14.32;;;8.65;;
64795;SDS011;51229;51.980;6.722;2023-04-15T08:26:05;12.40;;;7.35;;
64795;SDS011;51229;51.980;6.722;2023-04-15T08:28:31;12.73;;;7.50;;
64795;SDS011;51229;51.980;6.722;2023-04-15T08:30:57;10.15;;;5.47;;
64795;SDS011;51229;51.980;6.722;2023-04-15T08:33:23;11.45;;;6.13;;
64795;SDS011;51229;51.980;6.722;2023-04-15T08:35:49;10.57;;;6.57;;
64795;SDS011;51229;51.980;6.722;2023-04-15T08:38:15;10.57;;;6.68;;
64795;SDS011;51229;51.980;6.722;2023-04-15T08:40:42;12.95;;;7.18;;
64795;SDS011;51229;51.980;6.722;2023-04-15T08:43:14;11.95;;;7.65;;
64795;SDS011;51229;51.980;6.722;2023-04-15T08:45:52;13.07;;;6.30;;
64795;SDS011;51229;51.980;6.722;2023-04-15T08:48:19;12.25;;;7.75;;
64795;SDS011;51229;51.980;6.722;2023-04-15T08:50:47;12.90;;;7.47;;
64795;SDS011;51229;51.980;6.722;2023-04-15T08:53:13;11.02;;;6.32;;
64795;SDS011;51229;51.980;6.722;2023-04-15T08:55:43;10.27;;;6.10;;
64795;SDS011;51229;51.980;6.722;2023-04-15T08:58:11;10.30;;;6.10;;
64795;SDS011;51229;51.980;6.722;2023-04-15T09:00:38;11.05;;;6.03;;
64795;SDS011;51229;51.980;6.722;2023-04-15T09:03:04;10.73;;;6.32;;
64795;SDS011;51229;51.980;6.722;2023-04-15T09:05:31;10.88;;;6.82;;
64795;SDS011;51229;51.980;6.722;2023-04-15T09:07:58;12.20;;;6.95;;
64795;SDS011;51229;51.980;6.722;2023-04-15T09:10:24;10.10;;;6.47;;
64795;SDS011;51229;51.980;6.722;2023-04-15T09:12:49;9.77;;;6.03;;
64795;SDS011;51229;51.980;6.722;2023-04-15T09:15:15;11.15;;;6.60;;
64795;SDS011;51229;51.980;6.722;2023-04-15T09:17:44;9.70;;;5.97;;
64795;SDS011;51229;51.980;6.722;2023-04-15T09:20:14;10.82;;;6.57;;
64795;SDS011;51229;51.980;6.722;2023-04-15T09:22:41;9.45;;;6.10;;
64795;SDS011;51229;51.980;6.722;2023-04-15T09:27:47;8.75;;;5.72;;
64795;SDS011;51229;51.980;6.722;2023-04-15T09:30:13;8.77;;;5.88;;
64795;SDS011;51229;51.980;6.722;2023-04-15T09:32:59;8.88;;;5.80;;
64795;SDS011;51229;51.980;6.722;2023-04-15T09:35:35;10.98;;;6.13;;
64795;SDS011;51229;51.980;6.722;2023-04-15T09:38:10;8.88;;;5.90;;
64795;SDS011;51229;51.980;6.722;2023-04-15T09:40:38;8.63;;;5.40;;
64795;SDS011;51229;51.980;6.722;2023-04-15T09:43:07;7.50;;;4.55;;
64795;SDS011;51229;51.980;6.722;2023-04-15T09:45:36;8.80;;;4.88;;
64795;SDS011;51229;51.980;6.722;2023-04-15T09:48:21;10.27;;;4.60;;
64795;SDS011;51229;51.980;6.722;2023-04-15T09:50:58;8.57;;;4.85;;
64795;SDS011;51229;51.980;6.722;2023-04-15T09:53:25;7.30;;;4.40;;
64795;SDS011;51229;51.980;6.722;2023-04-15T09:55:55;7.35;;;4.22;;
64795;SDS011;51229;51.980;6.722;2023-04-15T09:58:30;6.40;;;3.72;;
64795;SDS011;51229;51.980;6.722;2023-04-15T10:00:59;7.55;;;4.88;;
64795;SDS011;51229;51.980;6.722;2023-04-15T10:03:28;7.13;;;4.20;;
64795;SDS011;51229;51.980;6.722;2023-04-15T10:05:56;8.48;;;4.55;;
64795;SDS011;51229;51.980;6.722;2023-04-15T10:08:27;7.72;;;4.60;;
64795;SDS011;51229;51.980;6.722;2023-04-15T10:10:55;7.55;;;4.45;;
64795;SDS011;51229;51.980;6.722;2023-04-15T10:13:22;6.82;;;4.43;;
64795;SDS011;51229;51.980;6.722;2023-04-15T10:16:05;6.88;;;4.60;;
64795;SDS011;51229;51.980;6.722;2023-04-15T10:18:37;6.68;;;4.30;;
64795;SDS011;51229;51.980;6.722;2023-04-15T10:21:06;7.82;;;3.65;;
64795;SDS011;51229;51.980;6.722;2023-04-15T10:23:34;7.68;;;4.45;;
64795;SDS011;51229;51.980;6.722;2023-04-15T10:26:00;5.60;;;3.28;;
64795;SDS011;51229;51.980;6.722;2023-04-15T10:28:28;5.65;;;3.55;;
64795;SDS011;51229;51.980;6.722;2023-04-15T10:30:54;6.50;;;3.70;;
64795;SDS011;51229;51.980;6.722;2023-04-15T10:33:22;5.50;;;3.20;;
64795;SDS011;51229;51.980;6.722;2023-04-15T10:35:49;6.03;;;3.13;;
64795;SDS011;51229;51.980;6.722;2023-04-15T10:38:31;5.97;;;3.28;;
64795;SDS011;51229;51.980;6.722;2023-04-15T10:46:23;7.13;;;3.95;;
64795;SDS011;51229;51.980;6.722;2023-04-15T10:49:06;6.88;;;3.67;;
64795;SDS011;51229;51.980;6.722;2023-04-15T10:51:36;7.38;;;3.60;;
64795;SDS011;51229;51.980;6.722;2023-04-15T10:54:13;6.82;;;3.78;;
64795;SDS011;51229;51.980;6.722;2023-04-15T10:56:44;6.65;;;3.78;;
64795;SDS011;51229;51.980;6.722;2023-04-15T10:59:09;5.30;;;3.00;;
64795;SDS011;51229;51.980;6.722;2023-04-15T11:01:52;5.00;;;2.97;;
64795;SDS011;51229;51.980;6.722;2023-04-15T11:07:04;6.88;;;3.20;;
64795;SDS011;51229;51.980;6.722;2023-04-15T11:09:31;6.72;;;3.10;;
64795;SDS011;51229;51.980;6.722;2023-04-15T11:12:04;4.97;;;2.83;;
64795;SDS011;51229;51.980;6.722;2023-04-15T11:14:32;5.88;;;2.95;;
64795;SDS011;51229;51.980;6.722;2023-04-15T11:16:59;5.55;;;3.10;;
64795;SDS011;51229;51.980;6.722;2023-04-15T11:19:25;5.78;;;3.25;;
64795;SDS011;51229;51.980;6.722;2023-04-15T11:22:05;6.78;;;3.45;;
64795;SDS011;51229;51.980;6.722;2023-04-15T11:24:32;6.90;;;3.00;;
64795;SDS011;51229;51.980;6.722;2023-04-15T11:26:57;6.43;;;4.07;;
64795;SDS011;51229;51.980;6.722;2023-04-15T11:29:27;5.15;;;3.15;;
64795;SDS011;51229;51.980;6.722;2023-04-15T11:32:05;5.70;;;2.88;;
64795;SDS011;51229;51.980;6.722;2023-04-15T11:34:31;5.85;;;3.00;;
64795;SDS011;51229;51.980;6.722;2023-04-15T11:36:57;5.80;;;2.90;;
64795;SDS011;51229;51.980;6.722;2023-04-15T11:39:23;5.30;;;2.60;;
64795;SDS011;51229;51.980;6.722;2023-04-15T11:41:49;4.45;;;2.53;;
64795;SDS011;51229;51.980;6.722;2023-04-15T11:44:18;5.78;;;2.78;;
64795;SDS011;51229;51.980;6.722;2023-04-15T11:46:44;6.65;;;2.55;;
64795;SDS011;51229;51.980;6.722;2023-04-15T11:49:09;4.45;;;2.42;;
64795;SDS011;51229;51.980;6.722;2023-04-15T11:51:35;4.32;;;2.50;;
64795;SDS011;51229;51.980;6.722;2023-04-15T11:54:01;3.90;;;2.30;;
64795;SDS011;51229;51.980;6.722;2023-04-15T11:56:27;4.22;;;2.30;;
64795;SDS011;51229;51.980;6.722;2023-04-15T11:58:54;4.90;;;2.60;;
64795;SDS011;51229;51.980;6.722;2023-04-15T12:01:36;4.38;;;2.40;;
64795;SDS011;51229;51.980;6.722;2023-04-15T12:04:17;5.38;;;2.65;;
64795;SDS011;51229;51.980;6.722;2023-04-15T12:06:48;4.15;;;2.25;;
64795;SDS011;51229;51.980;6.722;2023-04-15T12:09:14;5.40;;;2.50;;
64795;SDS011;51229;51.980;6.722;2023-04-15T12:14:20;6.07;;;2.28;;
64795;SDS011;51229;51.980;6.722;2023-04-15T12:16:51;4.90;;;2.20;;
64795;SDS011;51229;51.980;6.722;2023-04-15T12:19:38;5.80;;;2.30;;
64795;SDS011;51229;51.980;6.722;2023-04-15T12:22:12;4.78;;;2.58;;
64795;SDS011;51229;51.980;6.722;2023-04-15T12:24:40;7.22;;;2.33;;
64795;SDS011;51229;51.980;6.722;2023-04-15T12:27:12;4.03;;;2.42;;
64795;SDS011;51229;51.980;6.722;2023-04-15T12:29:39;4.70;;;2.08;;
64795;SDS011;51229;51.980;6.722;2023-04-15T12:32:10;5.10;;;2.85;;
64795;SDS011;51229;51.980;6.722;2023-04-15T12:34:38;5.28;;;2.35;;
64795;SDS011;51229;51.980;6.722;2023-04-15T12:37:07;3.67;;;2.13;;
64795;SDS011;51229;51.980;6.722;2023-04-15T12:39:34;3.70;;;2.08;;
64795;SDS011;51229;51.980;6.722;2023-04-15T12:42:02;3.88;;;1.95;;
64795;SDS011;51229;51.980;6.722;2023-04-15T12:44:29;3.90;;;2.00;;
64795;SDS011;51229;51.980;6.722;2023-04-15T12:46:55;4.45;;;2.00;;
64795;SDS011;51229;51.980;6.722;2023-04-15T12:49:21;3.40;;;1.48;;
64795;SDS011;51229;51.980;6.722;2023-04-15T12:51:48;3.67;;;1.85;;
64795;SDS011;51229;51.980;6.722;2023-04-15T12:54:15;3.17;;;1.85;;
64795;SDS011;51229;51.980;6.722;2023-04-15T12:56:41;4.53;;;2.03;;
64795;SDS011;51229;51.980;6.722;2023-04-15T12:59:08;4.80;;;2.15;;
64795;SDS011;51229;51.980;6.722;2023-04-15T13:01:34;3.92;;;2.08;;
64795;SDS011;51229;51.980;6.722;2023-04-15T13:04:00;4.75;;;1.90;;
64795;SDS011;51229;51.980;6.722;2023-04-15T13:06:26;4.18;;;2.17;;
64795;SDS011;51229;51.980;6.722;2023-04-15T13:08:53;3.10;;;1.85;;
64795;SDS011;51229;51.980;6.722;2023-04-15T13:11:20;3.35;;;2.10;;
64795;SDS011;51229;51.980;6.722;2023-04-15T13:13:49;3.53;;;1.88;;
64795;SDS011;51229;51.980;6.722;2023-04-15T13:16:16;3.90;;;2.05;;
64795;SDS011;51229;51.980;6.722;2023-04-15T13:18:43;3.25;;;2.10;;
64795;SDS011;51229;51.980;6.722;2023-04-15T13:21:10;4.63;;;2.10;;
64795;SDS011;51229;51.980;6.722;2023-04-15T13:23:37;3.97;;;2.15;;
64795;SDS011;51229;51.980;6.722;2023-04-15T13:26:03;4.63;;;2.33;;
64795;SDS011;51229;51.980;6.722;2023-04-15T13:28:28;4.57;;;2.33;;
64795;SDS011;51229;51.980;6.722;2023-04-15T13:30:54;4.57;;;2.00;;
64795;SDS011;51229;51.980;6.722;2023-04-15T13:33:20;4.55;;;2.22;;
64795;SDS011;51229;51.980;6.722;2023-04-15T13:35:45;4.78;;;2.28;;
64795;SDS011;51229;51.980;6.722;2023-04-15T13:38:11;3.95;;;2.30;;
64795;SDS011;51229;51.980;6.722;2023-04-15T13:40:37;4.30;;;2.30;;
64795;SDS011;51229;51.980;6.722;2023-04-15T13:43:02;4.85;;;2.40;;
64795;SDS011;51229;51.980;6.722;2023-04-15T13:45:28;4.03;;;2.10;;
64795;SDS011;51229;51.980;6.722;2023-04-15T13:47:55;3.80;;;2.10;;
64795;SDS011;51229;51.980;6.722;2023-04-15T13:50:23;5.65;;;2.42;;
64795;SDS011;51229;51.980;6.722;2023-04-15T13:52:49;4.07;;;2.25;;
64795;SDS011;51229;51.980;6.722;2023-04-15T13:55:15;3.47;;;1.80;;
64795;SDS011;51229;51.980;6.722;2023-04-15T13:57:41;2.95;;;1.65;;
64795;SDS011;51229;51.980;6.722;2023-04-15T14:00:06;3.65;;;2.00;;
64795;SDS011;51229;51.980;6.722;2023-04-15T14:02:33;3.45;;;1.95;;
64795;SDS011;51229;51.980;6.722;2023-04-15T14:04:59;4.03;;;2.08;;
64795;SDS011;51229;51.980;6.722;2023-04-15T14:07:25;4.93;;;1.70;;
64795;SDS011;51229;51.980;6.722;2023-04-15T14:09:50;3.47;;;1.92;;
64795;SDS011;51229;51.980;6.722;2023-04-15T14:12:16;3.95;;;2.00;;
64795;SDS011;51229;51.980;6.722;2023-04-15T14:14:43;3.63;;;1.95;;
64795;SDS011;51229;51.980;6.722;2023-04-15T14:17:09;3.95;;;1.88;;
64795;SDS011;51229;51.980;6.722;2023-04-15T14:19:35;4.05;;;2.30;;
64795;SDS011;51229;51.980;6.722;2023-04-15T14:22:01;5.05;;;2.25;;
64795;SDS011;51229;51.980;6.722;2023-04-15T14:24:27;4.68;;;2.40;;
64795;SDS011;51229;51.980;6.722;2023-04-15T14:26:53;4.15;;;2.05;;
64795;SDS011;51229;51.980;6.722;2023-04-15T14:29:19;4.13;;;2.03;;
64795;SDS011;51229;51.980;6.722;2023-04-15T14:31:44;3.88;;;1.90;;
64795;SDS011;51229;51.980;6.722;2023-04-15T14:34:13;5.38;;;2.78;;
64795;SDS011;51229;51.980;6.722;2023-04-15T14:36:39;3.95;;;2.63;;
64795;SDS011;51229;51.980;6.722;2023-04-15T14:39:05;4.25;;;2.50;;
64795;SDS011;51229;51.980;6.722;2023-04-15T14:41:32;5.25;;;2.72;;
64795;SDS011;51229;51.980;6.722;2023-04-15T14:43:58;5.13;;;2.38;;
64795;SDS011;51229;51.980;6.722;2023-04-15T14:46:24;5.13;;;2.55;;
64795;SDS011;51229;51.980;6.722;2023-04-15T14:48:50;6.47;;;2.50;;
64795;SDS011;51229;51.980;6.722;2023-04-15T14:51:16;5.55;;;2.70;;
64795;SDS011;51229;51.980;6.722;2023-04-15T14:53:41;3.80;;;2.25;;